Terminal Aerodrome Forecast
Issued by NWS

Home | Current Version | Previous Version | Text Only | Print | Product List | Glossary On
Versions: 1 2 3 4 5 6 7 8 9 10 11 12 13 14 15 16 17
000
FTUS44 KTSA 021725
TAFMLC
TAF
KMLC 021725Z 0218/0318 22012KT P6SM SKC
     FM030100 19010KT P6SM VCTS BKN050CB
      TEMPO 0302/0306 3SM -TSRA BKN025CB
     FM030600 05005KT P6SM BKN035 PROB30 0306/0312 3SM -TSRA
      BKN025CB
     FM031200 VRB03KT P6SM BKN025 PROB30 0312/0318 3SM -TSRA
      BKN025CB=

USA.gov is the U.S. government's official web portal to all federal, state and local government web resources and services.